createdAt,value
2022-10-19T00:00:06.786Z,102027.53
2022-10-19T00:02:08.434Z,102020.41
2022-10-19T00:04:10.085Z,102022.06
2022-10-19T00:06:15.018Z,102023.91
2022-10-19T00:08:16.540Z,102027.16
2022-10-19T00:10:18.271Z,102029.13
2022-10-19T00:12:19.793Z,102030.13
2022-10-19T00:14:23.930Z,102027.47
2022-10-19T00:16:27.290Z,102029.00
2022-10-19T00:18:28.962Z,102023.13
2022-10-19T00:20:30.467Z,102028.69
2022-10-19T00:22:32.320Z,102028.47
2022-10-19T00:24:34.160Z,102036.66
2022-10-19T00:26:35.938Z,102027.38
2022-10-19T00:28:37.947Z,102030.06
2022-10-19T00:30:40.901Z,102029.13
2022-10-19T00:32:42.629Z,102023.78
2022-10-19T00:34:44.187Z,102025.72
2022-10-19T00:36:45.676Z,102032.81
2022-10-19T00:38:47.297Z,102034.59
2022-10-19T00:40:49.347Z,102030.88
2022-10-19T00:42:54.592Z,102023.66
2022-10-19T00:45:02.210Z,102032.72
2022-10-19T00:47:07.297Z,102030.97
2022-10-19T00:49:12.853Z,102025.97
2022-10-19T00:51:14.683Z,102034.47
2022-10-19T00:53:16.788Z,102021.25
2022-10-19T00:55:18.687Z,102024.78
2022-10-19T00:57:22.711Z,102024.00
2022-10-19T00:59:24.990Z,102022.31
2022-10-19T01:01:28.723Z,102023.19
2022-10-19T01:03:32.425Z,102036.31
2022-10-19T01:05:35.062Z,102026.50
2022-10-19T01:07:36.819Z,102030.97
2022-10-19T01:09:38.601Z,102027.03
2022-10-19T01:11:51.275Z,102030.31
2022-10-19T01:14:04.521Z,102020.06
2022-10-19T01:16:16.411Z,102023.41
2022-10-19T01:18:22.103Z,102023.78
2022-10-19T01:20:57.032Z,102029.34
2022-10-19T01:23:12.966Z,102023.19
2022-10-19T01:25:22.770Z,102023.53
2022-10-19T01:27:41.062Z,102011.38
2022-10-19T01:30:03.186Z,102016.59
2022-10-19T01:32:09.735Z,102009.50
2022-10-19T01:34:17.691Z,102008.41
2022-10-19T01:36:28.882Z,102006.97
2022-10-19T01:38:37.668Z,102016.59
2022-10-19T01:40:46.339Z,102007.28
2022-10-19T01:42:57.644Z,101998.34
2022-10-19T01:45:05.864Z,101997.78
2022-10-19T01:47:11.206Z,102007.97
2022-10-19T01:49:23.843Z,101995.69
2022-10-19T01:51:30.889Z,102002.97
2022-10-19T01:53:38.274Z,101987.56
2022-10-19T01:55:44.397Z,101997.19
2022-10-19T01:57:48.744Z,101991.59
2022-10-19T01:59:50.984Z,101993.66
2022-10-19T02:01:55.437Z,101992.88
2022-10-19T02:03:57.897Z,101994.63
2022-10-19T02:05:59.926Z,101993.94
2022-10-19T02:08:06.347Z,101992.03
2022-10-19T02:10:08.653Z,101980.72
2022-10-19T02:12:12.113Z,101991.03
2022-10-19T02:14:16.901Z,101983.47
2022-10-19T02:16:23.721Z,101979.25
2022-10-19T02:18:31.267Z,101986.56
2022-10-19T02:20:35.477Z,101988.47
2022-10-19T02:22:37.355Z,101985.06
2022-10-19T02:24:38.938Z,101983.22
2022-10-19T02:26:41.528Z,101977.75
2022-10-19T02:28:43.165Z,101986.56
2022-10-19T02:30:44.810Z,101984.06
2022-10-19T02:32:46.417Z,101981.16
2022-10-19T02:34:49.505Z,101976.75
2022-10-19T02:36:51.123Z,101985.34
2022-10-19T02:38:52.868Z,101982.59
2022-10-19T02:41:02.920Z,101992.28
2022-10-19T02:43:12.947Z,101994.69
2022-10-19T02:45:21.677Z,101989.34
2022-10-19T02:47:27.378Z,101979.34
2022-10-19T02:49:29.916Z,101982.94
2022-10-19T02:51:34.653Z,101984.28
2022-10-19T02:53:36.145Z,101983.47
2022-10-19T02:55:38.050Z,101983.97
2022-10-19T02:57:39.705Z,101989.09
2022-10-19T02:59:41.261Z,101993.38
2022-10-19T03:01:42.749Z,101994.47
2022-10-19T03:03:44.355Z,101989.22
2022-10-19T03:05:45.854Z,101970.31
2022-10-19T03:07:48.758Z,101993.94
2022-10-19T03:09:50.984Z,101985.81
2022-10-19T03:11:52.580Z,101994.63
2022-10-19T03:13:54.098Z,101995.56
2022-10-19T03:15:55.619Z,101993.66
2022-10-19T03:17:57.276Z,101998.94
2022-10-19T03:19:58.824Z,101997.22
2022-10-19T03:22:00.348Z,102000.03
2022-10-19T03:24:06.227Z,102006.03
2022-10-19T03:26:11.505Z,102011.00
2022-10-19T03:28:13.887Z,102000.31
2022-10-19T03:30:15.625Z,102005.84
2022-10-19T03:32:17.107Z,102012.88
2022-10-19T03:34:18.900Z,102010.13
2022-10-19T03:36:22.417Z,102008.53
2022-10-19T03:38:23.911Z,102009.03
2022-10-19T03:40:26.774Z,102010.75
2022-10-19T03:42:28.292Z,102021.44
2022-10-19T03:44:29.791Z,102015.53
2022-10-19T03:46:32.164Z,102025.97
2022-10-19T03:48:33.857Z,102016.59
2022-10-19T03:50:35.350Z,102026.47
2022-10-19T03:52:36.896Z,102032.59
2022-10-19T03:54:38.596Z,102026.59
2022-10-19T03:56:42.458Z,102026.78
2022-10-19T03:58:46.317Z,102027.47
2022-10-19T04:00:47.815Z,102030.13
2022-10-19T04:02:49.388Z,102022.78
2022-10-19T04:04:50.932Z,102034.34
2022-10-19T04:06:52.467Z,102029.25
2022-10-19T04:08:54.645Z,102036.09
2022-10-19T04:10:59.576Z,102031.44
2022-10-19T04:13:02.456Z,102027.03
2022-10-19T04:15:04.468Z,102041.31
2022-10-19T04:17:06.497Z,102038.63
2022-10-19T04:19:08.577Z,102036.47
2022-10-19T04:21:21.533Z,102034.22
2022-10-19T04:23:23.680Z,102048.13
2022-10-19T04:25:25.159Z,102035.09
2022-10-19T04:27:26.998Z,102041.66
2022-10-19T04:29:30.910Z,102038.88
2022-10-19T04:31:32.434Z,102031.44
2022-10-19T04:33:34.901Z,102033.47
2022-10-19T04:35:36.450Z,102039.03
2022-10-19T04:37:37.941Z,102037.53
2022-10-19T04:39:39.663Z,102040.06
2022-10-19T04:41:41.210Z,102038.16
2022-10-19T04:43:43.018Z,102020.97
2022-10-19T04:45:45.870Z,102048.25
2022-10-19T04:47:47.344Z,102041.31
2022-10-19T04:49:48.811Z,102044.09
2022-10-19T04:51:50.338Z,102045.25
2022-10-19T04:53:53.410Z,102053.84
2022-10-19T04:55:57.258Z,102049.44
2022-10-19T04:57:58.731Z,102055.69
2022-10-19T05:00:00.282Z,102056.50
2022-10-19T05:02:03.234Z,102050.25
2022-10-19T05:04:04.747Z,102055.47
2022-10-19T05:06:07.044Z,102054.72
2022-10-19T05:08:09.594Z,102053.97
2022-10-19T05:10:13.667Z,102054.78
2022-10-19T05:12:15.335Z,102071.84
2022-10-19T05:14:16.977Z,102059.31
2022-10-19T05:16:20.604Z,102064.50
2022-10-19T05:18:23.545Z,102077.06
2022-10-19T05:20:25.202Z,102075.31
2022-10-19T05:22:26.699Z,102066.25
2022-10-19T05:24:28.295Z,102069.75
2022-10-19T05:26:29.816Z,102066.13
2022-10-19T05:28:32.249Z,102079.38
2022-10-19T05:30:33.805Z,102081.78
2022-10-19T05:32:35.572Z,102078.69
2022-10-19T05:34:38.378Z,102083.94
2022-10-19T05:36:40.356Z,102088.03
2022-10-19T05:38:42.419Z,102081.25
2022-10-19T05:40:51.535Z,102083.69
2022-10-19T05:42:55.265Z,102091.94
2022-10-19T05:44:56.790Z,102088.66
2022-10-19T05:46:58.280Z,102092.13
2022-10-19T05:49:00.419Z,102085.16
2022-10-19T05:51:04.490Z,102093.34
2022-10-19T05:53:05.967Z,102089.47
2022-10-19T05:55:08.553Z,102087.72
2022-10-19T05:57:10.168Z,102079.13
2022-10-19T05:59:19.094Z,102087.13
2022-10-19T06:01:20.630Z,102086.75
2022-10-19T06:03:22.717Z,102085.94
2022-10-19T06:05:24.254Z,102093.25
2022-10-19T06:07:27.194Z,102094.06
2022-10-19T06:09:28.684Z,102087.66
2022-10-19T06:11:32.322Z,102094.50
2022-10-19T06:13:34.145Z,102097.94
2022-10-19T06:15:35.744Z,102091.97
2022-10-19T06:17:37.267Z,102096.06
2022-10-19T06:19:38.825Z,102091.13
2022-10-19T06:21:43.280Z,102104.25
2022-10-19T06:23:51.575Z,102108.84
2022-10-19T06:25:53.141Z,102109.84
2022-10-19T06:27:54.774Z,102111.38
2022-10-19T06:29:56.240Z,102101.31
2022-10-19T06:31:57.813Z,102117.34
2022-10-19T06:33:59.561Z,102111.94
2022-10-19T06:36:05.647Z,102108.66
2022-10-19T06:38:07.128Z,102110.19
2022-10-19T06:40:11.382Z,102115.41
2022-10-19T06:42:12.888Z,102112.69
2022-10-19T06:44:14.416Z,102104.69
2022-10-19T06:46:16.961Z,102115.34
2022-10-19T06:48:18.545Z,102118.75
2022-10-19T06:50:20.106Z,102115.53
2022-10-19T06:52:21.656Z,102125.41
2022-10-19T06:54:23.153Z,102127.03
2022-10-19T06:56:26.636Z,102128.59
2022-10-19T06:58:28.708Z,102128.81
2022-10-19T07:00:31.053Z,102133.13
2022-10-19T07:02:33.403Z,102131.75
2022-10-19T07:04:34.863Z,102135.78
2022-10-19T07:06:36.402Z,102140.50
2022-10-19T07:08:39.514Z,102147.84
2022-10-19T07:10:41.038Z,102138.69
2022-10-19T07:12:43.678Z,102134.91
2022-10-19T07:14:45.358Z,102129.22
2022-10-19T07:16:49.311Z,102131.13
2022-10-19T07:18:52.672Z,102130.56
2022-10-19T07:20:55.816Z,102138.31
2022-10-19T07:22:57.294Z,102134.84
2022-10-19T07:24:58.800Z,102148.66
2022-10-19T07:27:00.455Z,102144.69
2022-10-19T07:29:04.237Z,102140.97
2022-10-19T07:31:07.279Z,102142.72
2022-10-19T07:33:08.851Z,102142.72
2022-10-19T07:35:10.381Z,102139.28
2022-10-19T07:37:11.854Z,102136.13
2022-10-19T07:39:14.183Z,102136.88
2022-10-19T07:41:17.813Z,102144.06
2022-10-19T07:43:19.279Z,102145.59
2022-10-19T07:45:22.104Z,102144.50
2022-10-19T07:47:23.590Z,102149.19
2022-10-19T07:49:25.245Z,102149.25
2022-10-19T07:51:26.776Z,102147.28
2022-10-19T07:53:28.634Z,102151.75
2022-10-19T07:55:30.115Z,102155.31
2022-10-19T07:57:31.634Z,102156.53
2022-10-19T07:59:34.166Z,102165.59
2022-10-19T08:01:40.090Z,102165.75
2022-10-19T08:04:48.579Z,102171.09
2022-10-19T08:06:05.400Z,102168.56
2022-10-19T08:08:06.971Z,102176.25
2022-10-19T08:10:09.318Z,102166.47
2022-10-19T08:12:14.883Z,102173.88
2022-10-19T08:14:17.218Z,102171.50
2022-10-19T08:16:23.209Z,102179.16
2022-10-19T08:18:26.086Z,102172.06
2022-10-19T08:20:27.615Z,102171.03
2022-10-19T08:22:29.085Z,102176.41
2022-10-19T08:24:30.836Z,102173.69
2022-10-19T08:26:35.003Z,102173.72
2022-10-19T08:28:36.570Z,102181.72
2022-10-19T08:30:38.013Z,102174.06
2022-10-19T08:32:39.643Z,102183.13
2022-10-19T08:34:42.758Z,102183.16
2022-10-19T08:36:44.496Z,102176.69
2022-10-19T08:38:46.286Z,102183.53
2022-10-19T08:40:47.867Z,102187.06
2022-10-19T08:42:57.961Z,102193.59
2022-10-19T08:45:25.707Z,102191.38
2022-10-19T08:47:46.957Z,102195.19
2022-10-19T08:49:50.057Z,102191.84
2022-10-19T08:51:56.028Z,102194.97
2022-10-19T08:54:00.361Z,102191.91
2022-10-19T08:56:26.997Z,102188.88
2022-10-19T08:58:45.575Z,102196.25
2022-10-19T09:00:53.235Z,102191.81
2022-10-19T09:02:59.127Z,102191.81
2022-10-19T09:05:13.549Z,102188.06
2022-10-19T09:07:25.554Z,102187.41
2022-10-19T09:09:29.901Z,102192.22
2022-10-19T09:11:35.345Z,102191.28
2022-10-19T09:14:00.513Z,102190.69
2022-10-19T09:16:04.041Z,102195.44
2022-10-19T09:18:10.509Z,102197.88
2022-10-19T09:20:19.552Z,102204.59
2022-10-19T09:22:27.492Z,102202.41
2022-10-19T09:24:36.756Z,102203.59
2022-10-19T09:26:46.963Z,102205.59
2022-10-19T09:28:53.894Z,102208.41
2022-10-19T09:30:58.312Z,102208.13
2022-10-19T09:33:01.042Z,102210.53
2022-10-19T09:35:06.224Z,102210.94
2022-10-19T09:37:17.822Z,102211.81
2022-10-19T09:39:27.068Z,102218.06
2022-10-19T09:41:31.252Z,102215.91
2022-10-19T09:43:33.246Z,102212.44
2022-10-19T09:45:40.151Z,102210.50
2022-10-19T09:47:45.748Z,102215.91
2022-10-19T09:49:49.035Z,102210.81
2022-10-19T09:51:52.747Z,102222.78
2022-10-19T09:53:56.034Z,102214.97
2022-10-19T09:56:00.078Z,102227.09
2022-10-19T09:58:05.312Z,102227.28
2022-10-19T10:00:07.406Z,102229.00
2022-10-19T10:02:16.101Z,102226.28
2022-10-19T10:04:18.373Z,102224.81
2022-10-19T10:06:22.206Z,102227.28
2022-10-19T10:08:26.546Z,102220.59
2022-10-19T10:10:31.362Z,102220.88
2022-10-19T10:12:35.111Z,102219.41
2022-10-19T10:14:37.177Z,102219.94
2022-10-19T10:18:56.615Z,102210.75
2022-10-19T10:21:01.853Z,102218.16
2022-10-19T10:23:05.992Z,102218.31
2022-10-19T10:25:13.605Z,102222.25
2022-10-19T10:27:29.517Z,102218.66
2022-10-19T10:29:32.968Z,102222.19
2022-10-19T10:31:35.297Z,102225.06
2022-10-19T10:33:45.027Z,102223.00
2022-10-19T10:35:49.339Z,102215.97
2022-10-19T10:37:51.719Z,102216.16
2022-10-19T10:39:56.617Z,102227.28
2022-10-19T10:42:09.767Z,102229.59
2022-10-19T10:44:19.459Z,102228.22
2022-10-19T10:46:24.425Z,102220.97
2022-10-19T10:48:30.237Z,102237.84
2022-10-19T10:50:35.817Z,102222.84
2022-10-19T10:52:38.082Z,102228.66
2022-10-19T10:54:40.390Z,102220.38
2022-10-19T10:56:43.319Z,102222.63
2022-10-19T10:58:50.034Z,102215.69
2022-10-19T11:00:53.556Z,102223.50
2022-10-19T11:03:00.757Z,102225.25
2022-10-19T11:05:07.256Z,102222.44
2022-10-19T11:07:18.076Z,102223.38
2022-10-19T11:09:26.179Z,102232.84
2022-10-19T11:11:32.264Z,102226.72
2022-10-19T11:13:41.106Z,102223.81
2022-10-19T11:15:52.231Z,102225.34
2022-10-19T11:18:04.118Z,102219.50
2022-10-19T11:20:07.436Z,102212.22
2022-10-19T11:22:22.292Z,102208.31
2022-10-19T11:24:35.244Z,102218.47
2022-10-19T11:26:50.302Z,102211.19
2022-10-19T11:29:06.298Z,102215.97
2022-10-19T11:31:16.345Z,102214.78
2022-10-19T11:33:36.720Z,102213.78
2022-10-19T11:35:44.000Z,102210.22
2022-10-19T11:38:17.385Z,102208.59
2022-10-19T11:40:23.029Z,102211.22
2022-10-19T11:42:37.508Z,102209.69
2022-10-19T11:44:50.246Z,102203.03
2022-10-19T11:47:16.725Z,102203.34
2022-10-19T11:49:31.428Z,102194.94
2022-10-19T11:51:39.437Z,102185.94
2022-10-19T11:53:52.088Z,102186.03
2022-10-19T11:56:00.161Z,102189.91
2022-10-19T11:58:14.675Z,102194.66
2022-10-19T12:00:39.364Z,102194.31
2022-10-19T12:03:09.571Z,102193.63
2022-10-19T12:05:17.348Z,102192.03
2022-10-19T12:07:34.968Z,102202.16
2022-10-19T12:09:47.564Z,102194.44
2022-10-19T12:12:02.261Z,102187.94
2022-10-19T12:14:08.149Z,102194.66
2022-10-19T12:16:13.191Z,102183.59
2022-10-19T12:18:29.525Z,102186.81
2022-10-19T12:20:37.329Z,102192.19
2022-10-19T12:22:40.127Z,102193.94
2022-10-19T12:24:41.774Z,102192.63
2022-10-19T12:26:44.929Z,102190.84
2022-10-19T12:28:49.882Z,102189.75
2022-10-19T12:30:53.149Z,102187.63
2022-10-19T12:33:16.388Z,102188.53
2022-10-19T12:35:28.444Z,102184.63
2022-10-19T12:37:38.031Z,102185.78
2022-10-19T12:39:45.743Z,102184.06
2022-10-19T12:41:51.854Z,102182.06
2022-10-19T12:44:11.972Z,102181.81
2022-10-19T12:46:21.936Z,102183.34
2022-10-19T12:48:23.856Z,102179.50
2022-10-19T12:51:12.188Z,102167.81
2022-10-19T12:53:23.463Z,102173.34
2022-10-19T12:55:28.521Z,102174.75
2022-10-19T12:57:30.447Z,102176.78
2022-10-19T12:59:34.038Z,102171.16
2022-10-19T13:01:44.059Z,102161.16
2022-10-19T13:03:45.765Z,102171.78
2022-10-19T13:05:56.617Z,102171.28
2022-10-19T13:08:01.313Z,102162.47
2022-10-19T13:10:07.150Z,102160.88
2022-10-19T13:12:29.525Z,102163.78
2022-10-19T13:14:44.809Z,102160.06
2022-10-19T13:17:01.698Z,102158.41
2022-10-19T13:19:17.443Z,102158.84
2022-10-19T13:21:43.199Z,102158.72
2022-10-19T13:23:45.252Z,102154.06
2022-10-19T13:26:24.540Z,102145.47
2022-10-19T13:28:37.376Z,102138.06
2022-10-19T13:31:09.341Z,102145.88
2022-10-19T13:33:47.939Z,102142.22
2022-10-19T13:35:49.568Z,102142.94
2022-10-19T13:38:20.350Z,102124.00
2022-10-19T13:40:24.660Z,102137.41
2022-10-19T13:42:28.163Z,102134.59
2022-10-19T13:44:33.399Z,102141.19
2022-10-19T13:46:47.637Z,102133.19
2022-10-19T13:49:32.653Z,102124.34
2022-10-19T13:51:45.055Z,102125.59
2022-10-19T13:53:54.080Z,102135.44
2022-10-19T13:56:16.872Z,102135.06
2022-10-19T13:58:40.311Z,102130.41
2022-10-19T14:00:59.200Z,102128.03
2022-10-19T14:03:11.766Z,102128.91
2022-10-19T14:05:44.838Z,102132.22
2022-10-19T14:07:57.648Z,102131.88
2022-10-19T14:10:07.823Z,102131.88
2022-10-19T14:12:18.992Z,102128.69
2022-10-19T14:14:23.739Z,102121.19
2022-10-19T14:16:25.301Z,102123.78
2022-10-19T14:18:29.454Z,102124.09
2022-10-19T14:20:33.890Z,102122.66
2022-10-19T14:22:36.398Z,102119.19
2022-10-19T14:24:37.858Z,102120.75
2022-10-19T14:26:39.429Z,102117.00
2022-10-19T14:28:42.078Z,102121.34
2022-10-19T14:30:53.824Z,102120.03
2022-10-19T14:32:59.408Z,102114.13
2022-10-19T14:35:15.770Z,102123.41
2022-10-19T14:37:19.741Z,102121.50
2022-10-19T14:39:29.215Z,102115.13
2022-10-19T14:41:32.424Z,102114.50
2022-10-19T14:43:34.924Z,102117.25
2022-10-19T14:45:36.469Z,102113.63
2022-10-19T14:47:50.961Z,102096.38
2022-10-19T14:49:52.682Z,102101.06
2022-10-19T14:51:58.617Z,102110.47
2022-10-19T14:54:05.795Z,102106.50
2022-10-19T14:56:14.241Z,102103.69
2022-10-19T14:58:19.110Z,102099.63
2022-10-19T15:00:23.117Z,102103.75
2022-10-19T15:02:28.865Z,102105.63
2022-10-19T15:04:34.614Z,102107.00
2022-10-19T15:06:37.882Z,102099.03
2022-10-19T15:08:42.281Z,102099.09
2022-10-19T15:10:46.925Z,102104.38
2022-10-19T15:12:49.551Z,102107.56
2022-10-19T15:14:51.123Z,102100.31
2022-10-19T15:16:54.159Z,102102.19
2022-10-19T15:18:55.997Z,102108.72
2022-10-19T15:21:12.301Z,102107.97
2022-10-19T15:23:37.142Z,102108.56
2022-10-19T15:25:38.707Z,102094.44
2022-10-19T15:27:42.254Z,102103.34
2022-10-19T15:29:55.033Z,102108.44
2022-10-19T15:32:12.043Z,102119.16
2022-10-19T15:34:24.466Z,102116.63
2022-10-19T15:36:28.673Z,102120.50
2022-10-19T15:38:33.047Z,102115.88
2022-10-19T15:40:37.788Z,102116.88
2022-10-19T15:42:41.155Z,102111.53
2022-10-19T15:44:44.014Z,102108.94
2022-10-19T15:47:15.150Z,102109.06
2022-10-19T15:49:51.502Z,102105.31
2022-10-19T15:51:54.397Z,102110.47
2022-10-19T15:53:58.416Z,102108.00
2022-10-19T15:58:09.803Z,102110.28
2022-10-19T16:00:13.722Z,102113.13
2022-10-19T16:02:15.415Z,102124.53
2022-10-19T16:04:17.198Z,102119.03
2022-10-19T16:06:20.032Z,102119.31
2022-10-19T16:08:22.911Z,102126.41
2022-10-19T16:10:26.484Z,102119.03
2022-10-19T16:12:28.023Z,102121.91
2022-10-19T16:14:31.940Z,102126.00
2022-10-19T16:16:37.403Z,102132.06
2022-10-19T16:18:38.892Z,102133.72
2022-10-19T16:20:40.438Z,102135.72
2022-10-19T16:22:42.225Z,102133.56
2022-10-19T16:24:45.074Z,102134.22
2022-10-19T16:26:46.681Z,102129.44
2022-10-19T16:28:48.759Z,102139.72
2022-10-19T16:30:52.404Z,102142.34
2022-10-19T16:32:54.301Z,102140.34
2022-10-19T16:34:55.801Z,102136.75
2022-10-19T16:36:57.549Z,102137.69
2022-10-19T16:39:01.849Z,102137.50
2022-10-19T16:41:07.397Z,102136.28
2022-10-19T16:43:08.947Z,102147.84
2022-10-19T16:45:11.391Z,102135.22
2022-10-19T16:47:12.965Z,102151.69
2022-10-19T16:49:14.497Z,102145.22
2022-10-19T16:51:23.948Z,102148.91
2022-10-19T16:53:25.529Z,102144.13
2022-10-19T16:55:28.542Z,102144.56
2022-10-19T16:57:31.424Z,102146.06
2022-10-19T16:59:32.904Z,102153.81
2022-10-19T17:01:34.991Z,102154.69
2022-10-19T17:03:36.744Z,102154.88
2022-10-19T17:05:38.350Z,102166.31
2022-10-19T17:07:39.836Z,102164.03
2022-10-19T17:09:42.638Z,102161.78
2022-10-19T17:11:44.698Z,102170.59
2022-10-19T17:13:49.880Z,102171.59
2022-10-19T17:15:53.873Z,102174.31
2022-10-19T17:17:55.479Z,102176.28
2022-10-19T17:19:57.017Z,102171.94
2022-10-19T17:21:58.600Z,102179.19
2022-10-19T17:24:02.315Z,102179.47
2022-10-19T17:26:04.815Z,102177.75
2022-10-19T17:28:06.454Z,102183.13
2022-10-19T17:30:12.042Z,102187.16
2022-10-19T17:32:13.579Z,102190.22
2022-10-19T17:34:15.585Z,102185.00
2022-10-19T17:36:19.682Z,102175.44
2022-10-19T17:38:21.238Z,102185.38
2022-10-19T17:40:22.739Z,102179.22
2022-10-19T17:42:24.267Z,102184.66
2022-10-19T17:44:25.751Z,102180.41
2022-10-19T17:46:31.068Z,102185.00
2022-10-19T17:48:32.713Z,102179.88
2022-10-19T17:50:34.200Z,102185.31
2022-10-19T17:52:35.957Z,102181.81
2022-10-19T17:54:48.561Z,102186.34
2022-10-19T17:56:59.380Z,102182.19
2022-10-19T17:59:01.045Z,102180.63
2022-10-19T18:01:06.247Z,102190.72
2022-10-19T18:03:09.179Z,102192.06
2022-10-19T18:05:10.935Z,102185.31
2022-10-19T18:07:12.395Z,102167.56
2022-10-19T18:09:13.945Z,102185.75
2022-10-19T18:11:17.767Z,102185.84
2022-10-19T18:13:19.240Z,102182.16
2022-10-19T18:15:20.711Z,102187.81
2022-10-19T18:17:25.449Z,102184.56
2022-10-19T18:19:30.643Z,102188.59
2022-10-19T18:21:34.545Z,102195.78
2022-10-19T18:23:36.390Z,102194.91
2022-10-19T18:25:53.518Z,102187.88
2022-10-19T18:27:55.928Z,102196.09
2022-10-19T18:29:57.580Z,102194.25
2022-10-19T18:31:59.116Z,102192.81
2022-10-19T18:34:02.543Z,102190.31
2022-10-19T18:36:07.442Z,102187.03
2022-10-19T18:38:09.094Z,102191.06
2022-10-19T18:40:11.154Z,102192.72
2022-10-19T18:42:12.706Z,102193.78
2022-10-19T18:44:14.213Z,102198.69
2022-10-19T18:46:18.041Z,102192.72
2022-10-19T18:48:19.828Z,102194.59
2022-10-19T18:50:21.342Z,102200.84
2022-10-19T18:52:24.137Z,102195.97
2022-10-19T18:54:26.230Z,102158.75
2022-10-19T18:56:28.026Z,102190.31
2022-10-19T18:58:29.841Z,102187.41
2022-10-19T19:00:31.493Z,102166.53
2022-10-19T19:02:46.396Z,102189.53
2022-10-19T19:04:48.666Z,102191.97
2022-10-19T19:06:50.341Z,102186.59
2022-10-19T19:08:55.768Z,102174.13
2022-10-19T19:10:57.678Z,102183.97
2022-10-19T19:12:59.213Z,102179.00
2022-10-19T19:15:00.833Z,102182.44
2022-10-19T19:17:02.303Z,102189.09
2022-10-19T19:19:04.915Z,102184.16
2022-10-19T19:21:15.038Z,102187.13
2022-10-19T19:23:16.707Z,102183.94
2022-10-19T19:25:19.766Z,102185.97
2022-10-19T19:27:21.663Z,102186.09
2022-10-19T19:29:23.269Z,102178.38
2022-10-19T19:31:25.124Z,102188.38
2022-10-19T19:33:26.629Z,102187.50
2022-10-19T19:35:28.117Z,102181.47
2022-10-19T19:37:29.979Z,102185.31
2022-10-19T19:39:31.527Z,102178.41
2022-10-19T19:41:34.337Z,102182.09
2022-10-19T19:43:37.737Z,102184.94
2022-10-19T19:45:39.903Z,102182.31
2022-10-19T19:47:41.440Z,102183.34
2022-10-19T19:49:43.085Z,102181.81
2022-10-19T19:51:44.641Z,102187.31
2022-10-19T19:53:47.455Z,102191.19
2022-10-19T19:55:49.683Z,102181.72
2022-10-19T19:57:52.632Z,102192.38
2022-10-19T19:59:54.115Z,102183.56
2022-10-19T20:01:55.531Z,102187.31
2022-10-19T20:03:58.893Z,102193.63
2022-10-19T20:06:01.345Z,102190.81
2022-10-19T20:08:03.066Z,102189.13
2022-10-19T20:10:04.970Z,102189.22
2022-10-19T20:12:06.407Z,102204.31
2022-10-19T20:14:09.238Z,102195.63
2022-10-19T20:16:13.085Z,102195.63
2022-10-19T20:18:14.588Z,102186.88
2022-10-19T20:20:16.878Z,102196.75
2022-10-19T20:22:18.398Z,102204.69
2022-10-19T20:24:19.697Z,102204.13
2022-10-19T20:26:23.719Z,102207.56
2022-10-19T20:28:26.403Z,102196.16
2022-10-19T20:30:29.233Z,102198.03
2022-10-19T20:32:30.905Z,102205.06
2022-10-19T20:34:34.417Z,102203.63
2022-10-19T20:36:35.922Z,102206.03
2022-10-19T20:38:38.919Z,102198.97
2022-10-19T20:40:40.394Z,102204.38
2022-10-19T20:42:41.745Z,102209.94
2022-10-19T20:44:44.327Z,102207.66
2022-10-19T20:46:50.501Z,102207.72
2022-10-19T20:48:52.893Z,102215.66
2022-10-19T20:50:54.622Z,102208.63
2022-10-19T20:52:56.077Z,102212.75
2022-10-19T20:54:57.515Z,102213.69
2022-10-19T20:56:59.388Z,102218.97
2022-10-19T20:59:05.340Z,102219.75
2022-10-19T21:01:08.513Z,102223.03
2022-10-19T21:03:11.420Z,102214.63
2022-10-19T21:05:14.390Z,102223.75
2022-10-19T21:07:15.828Z,102231.06
2022-10-19T21:09:18.151Z,102221.34
2022-10-19T21:11:21.587Z,102218.53
2022-10-19T21:13:23.051Z,102216.75
2022-10-19T21:15:25.381Z,102221.50
2022-10-19T21:17:26.931Z,102216.25
2022-10-19T21:19:30.351Z,102223.53
2022-10-19T21:21:33.361Z,102222.13
2022-10-19T21:23:34.912Z,102221.31
2022-10-19T21:25:36.386Z,102216.97
2022-10-19T21:27:38.034Z,102222.25
2022-10-19T21:29:39.866Z,102218.88
2022-10-19T21:31:45.144Z,102221.63
2022-10-19T21:33:49.798Z,102219.47
2022-10-19T21:35:52.589Z,102210.41
2022-10-19T21:37:54.021Z,102205.84
2022-10-19T21:39:55.509Z,102207.44
2022-10-19T21:41:56.967Z,102213.59
2022-10-19T21:43:58.273Z,102211.22
2022-10-19T21:46:01.652Z,102204.31
2022-10-19T21:48:03.101Z,102204.16
2022-10-19T21:50:04.845Z,102204.22
2022-10-19T21:52:08.501Z,102190.91
2022-10-19T21:54:13.624Z,102204.44
2022-10-19T21:56:15.883Z,102202.75
2022-10-19T21:58:17.756Z,102204.38
2022-10-19T22:00:19.305Z,102205.34
2022-10-19T22:02:20.614Z,102209.03
2022-10-19T22:04:22.601Z,102200.34
2022-10-19T22:06:24.634Z,102195.91
2022-10-19T22:08:27.844Z,102196.78
2022-10-19T22:10:29.789Z,102195.97
2022-10-19T22:12:31.289Z,102193.38
2022-10-19T22:14:32.651Z,102183.69
2022-10-19T22:16:34.609Z,102189.97
2022-10-19T22:18:36.426Z,102184.72
2022-10-19T22:20:39.214Z,102190.16
2022-10-19T22:22:40.754Z,102181.34
2022-10-19T22:24:43.425Z,102173.47
2022-10-19T22:26:46.965Z,102177.00
2022-10-19T22:28:51.033Z,102177.16
2022-10-19T22:30:53.362Z,102175.53
2022-10-19T22:32:54.850Z,102173.66
2022-10-19T22:34:56.173Z,102166.78
2022-10-19T22:36:57.874Z,102169.53
2022-10-19T22:38:59.407Z,102165.09
2022-10-19T22:41:02.110Z,102159.75
2022-10-19T22:43:06.704Z,102167.72
2022-10-19T22:45:08.859Z,102161.59
2022-10-19T22:47:10.342Z,102159.78
2022-10-19T22:49:11.773Z,102164.13
2022-10-19T22:51:13.310Z,102160.72
2022-10-19T22:53:14.846Z,102166.84
2022-10-19T22:55:16.393Z,102160.56
2022-10-19T22:57:19.064Z,102163.22
2022-10-19T22:59:20.630Z,102156.13
2022-10-19T23:01:22.030Z,102156.88
2022-10-19T23:03:23.673Z,102149.75
2022-10-19T23:05:25.208Z,102148.88
2022-10-19T23:07:26.495Z,102150.69
2022-10-19T23:09:27.975Z,102149.75
2022-10-19T23:11:29.383Z,102146.16
2022-10-19T23:13:32.591Z,102147.91
2022-10-19T23:15:34.056Z,102145.31
2022-10-19T23:17:35.711Z,102145.31
2022-10-19T23:19:37.317Z,102147.13
2022-10-19T23:21:38.603Z,102148.88
2022-10-19T23:23:40.857Z,102151.63
2022-10-19T23:25:42.351Z,102152.44
2022-10-19T23:27:43.647Z,102160.38
2022-10-19T23:29:46.514Z,102156.13
2022-10-19T23:31:48.008Z,102161.41
2022-10-19T23:33:49.346Z,102164.16
2022-10-19T23:35:51.004Z,102160.66
2022-10-19T23:37:52.490Z,102159.88
2022-10-19T23:39:53.846Z,102163.66
2022-10-19T23:41:55.353Z,102162.91
2022-10-19T23:43:56.667Z,102166.56
2022-10-19T23:45:59.668Z,102165.88
2022-10-19T23:48:01.161Z,102173.03
2022-10-19T23:50:02.518Z,102159.72